Time;durP1;ratioP1;P1;durP2;ratioP2;P2;SDS_P1;SDS_P2;PMS_P1;PMS_P2;Temp;Humidity;BMP_temperature;BMP_pressure;BME280_temperature;BME280_humidity;BME280_pressure;Samples;Min_cycle;Max_cycle;Signal;HPM_P1;HPM_P2
2022/04/09 00:00:11;;;;;;;8.07;1.27;;;;;;;1.45;100.00;99055.41;5029023;28;20059;-80
2022/04/09 00:02:37;;;;;;;3.50;1.20;;;;;;;1.42;100.00;99060.97;5029964;28;20135;-81
2022/04/09 00:05:02;;;;;;;7.13;2.25;;;;;;;1.46;100.00;99067.59;5029741;28;20035;-80
2022/04/09 00:07:28;;;;;;;6.28;1.10;;;;;;;1.43;100.00;99063.47;5029067;28;20029;-81
2022/04/09 00:09:53;;;;;;;7.40;1.33;;;;;;;1.51;100.00;99073.25;5062600;28;20033;-80
2022/04/09 00:12:19;;;;;;;6.05;1.15;;;;;;;1.49;100.00;99075.19;5027222;28;20021;-79
2022/04/09 00:14:44;;;;;;;9.63;1.43;;;;;;;1.39;100.00;99071.78;5032089;28;20650;-80
2022/04/09 00:17:09;;;;;;;5.23;1.07;;;;;;;1.31;100.00;99074.28;5027087;28;20079;-81
2022/04/09 00:19:36;;;;;;;6.60;2.00;;;;;;;1.33;100.00;99082.88;5044357;28;20041;-81
2022/04/09 00:22:03;;;;;;;10.95;1.73;;;;;;;1.40;100.00;99089.22;5024995;28;20443;-79
2022/04/09 00:24:28;;;;;;;5.63;1.27;;;;;;;1.46;100.00;99093.91;5045676;28;20024;-80
2022/04/09 00:26:53;;;;;;;5.87;1.93;;;;;;;1.41;100.00;99085.63;5030903;28;20036;-79
2022/04/09 00:29:19;;;;;;;7.20;1.80;;;;;;;1.45;100.00;99093.09;5047657;28;20291;-79
2022/04/09 00:31:44;;;;;;;6.23;1.77;;;;;;;1.44;100.00;99099.28;5031606;28;20178;-79
2022/04/09 00:34:09;;;;;;;8.00;2.43;;;;;;;1.47;100.00;99099.03;5048408;28;20071;-80
2022/04/09 00:36:35;;;;;;;5.03;1.60;;;;;;;1.42;100.00;99093.34;5030270;28;20657;-80
2022/04/09 00:39:00;;;;;;;13.68;2.17;;;;;;;1.43;100.00;99104.72;5032644;28;20033;-80
2022/04/09 00:41:26;;;;;;;9.57;1.35;;;;;;;1.42;100.00;99095.16;5027915;28;20055;-81
2022/04/09 00:43:51;;;;;;;3.57;1.77;;;;;;;1.39;100.00;99105.97;5028092;28;20509;-79
2022/04/09 00:46:16;;;;;;;6.97;1.63;;;;;;;1.32;100.00;99102.25;5023354;28;20595;-80
2022/04/09 00:48:43;;;;;;;9.50;1.60;;;;;;;1.24;100.00;99106.44;5025935;28;20040;-81
2022/04/09 00:51:08;;;;;;;9.82;1.75;;;;;;;1.21;100.00;99114.59;5036705;28;20252;-80
2022/04/09 00:53:35;;;;;;;17.27;2.08;;;;;;;1.22;100.00;99113.63;5043900;28;20083;-79
2022/04/09 00:56:16;;;;;;;6.40;1.75;;;;;;;1.24;100.00;99119.59;5025923;28;20035;-80
2022/04/09 00:58:55;;;;;;;11.15;2.83;;;;;;;1.25;100.00;99115.16;5043066;28;20079;-80
2022/04/09 01:01:28;;;;;;;7.38;2.53;;;;;;;1.31;100.00;99114.59;5019916;28;20476;-79
2022/04/09 01:03:54;;;;;;;6.43;2.13;;;;;;;1.31;100.00;99121.63;5040050;28;20033;-81
2022/04/09 01:06:20;;;;;;;6.50;1.88;;;;;;;1.25;100.00;99113.34;5026487;28;20116;-81
2022/04/09 01:08:46;;;;;;;8.80;2.08;;;;;;;1.32;100.00;99123.28;5043367;28;20029;-81
2022/04/09 01:11:13;;;;;;;;;;;;;;;1.30;100.00;99125.25;5043804;28;20029;-79
2022/04/09 01:13:39;;;;;;;7.95;1.50;;;;;;;1.23;100.00;99125.78;5035555;28;20130;-80
2022/04/09 01:16:05;;;;;;;14.25;2.17;;;;;;;1.13;100.00;99125.00;5040558;28;20074;-80
2022/04/09 01:18:33;;;;;;;8.27;2.53;;;;;;;1.10;100.00;99125.28;5025919;28;20032;-82
2022/04/09 01:21:03;;;;;;;7.90;1.88;;;;;;;1.20;100.00;99136.59;5025351;28;20025;-80
2022/04/09 01:23:29;;;;;;;11.68;2.15;;;;;;;1.22;100.00;99139.09;5025253;28;20021;-80
2022/04/09 01:25:57;;;;;;;12.98;2.25;;;;;;;1.20;100.00;99144.50;5033377;28;20107;-80
2022/04/09 01:28:22;;;;;;;12.80;2.47;;;;;;;1.29;100.00;99140.19;5025406;28;20037;-81
2022/04/09 01:30:48;;;;;;;9.98;1.70;;;;;;;1.25;100.00;99150.16;5023836;28;20938;-80
2022/04/09 01:33:15;;;;;;;8.43;2.25;;;;;;;1.25;100.00;99151.97;5040366;28;20047;-81
2022/04/09 01:35:41;;;;;;;16.50;3.20;;;;;;;1.19;100.00;99152.50;5030973;28;20033;-81
2022/04/09 01:38:07;;;;;;;12.75;3.58;;;;;;;1.18;100.00;99142.97;5030369;28;20025;-81
2022/04/09 01:40:33;;;;;;;10.47;2.50;;;;;;;1.15;100.00;99154.59;5021953;28;20103;-81
2022/04/09 01:42:58;;;;;;;7.25;2.10;;;;;;;1.23;100.00;99152.09;5021408;28;20347;-79
2022/04/09 01:45:24;;;;;;;11.82;3.42;;;;;;;1.17;100.00;99154.44;5035097;28;20532;-78
2022/04/09 01:47:50;;;;;;;11.25;2.53;;;;;;;1.13;100.00;99146.03;5025460;28;20549;-80
2022/04/09 01:50:15;;;;;;;13.57;2.42;;;;;;;1.14;100.00;99152.94;5033174;28;20037;-81
2022/04/09 01:52:41;;;;;;;;;;;;;;;1.25;100.00;99151.97;5022290;28;20021;-81
2022/04/09 01:55:07;;;;;;;12.00;3.28;;;;;;;1.15;100.00;99149.34;5028902;28;19913;-81
2022/04/09 01:57:34;;;;;;;13.48;2.47;;;;;;;1.13;100.00;99156.53;5037598;28;20056;-81
2022/04/09 02:00:02;;;;;;;17.17;2.85;;;;;;;1.17;100.00;99160.56;5020961;28;20021;-80
2022/04/09 02:02:28;;;;;;;9.35;2.75;;;;;;;1.23;100.00;99167.84;5036786;28;20628;-81
2022/04/09 02:04:53;;;;;;;14.75;2.63;;;;;;;1.30;100.00;99167.31;5037100;28;20040;-80
2022/04/09 02:07:19;;;;;;;11.10;2.72;;;;;;;1.26;100.00;99170.22;5029549;28;20044;-78
2022/04/09 02:09:45;;;;;;;21.63;2.63;;;;;;;1.21;100.00;99164.53;5038426;28;20072;-80
2022/04/09 02:12:10;;;;;;;6.37;3.07;;;;;;;1.22;100.00;99176.72;5041204;28;20115;-80
2022/04/09 02:14:35;;;;;;;11.17;2.07;;;;;;;1.15;100.00;99167.75;5026252;28;20036;-81
2022/04/09 02:17:01;;;;;;;10.10;2.33;;;;;;;1.09;100.00;99165.66;5025411;28;20280;-80
2022/04/09 02:19:26;;;;;;;9.45;2.45;;;;;;;1.08;100.00;99179.78;5045504;28;20039;-80
2022/04/09 02:21:53;;;;;;;17.33;3.03;;;;;;;1.03;100.00;99182.00;5025159;28;20078;-80
2022/04/09 02:24:18;;;;;;;15.38;3.10;;;;;;;1.10;100.00;99188.38;5041308;28;20041;-80
2022/04/09 02:26:43;;;;;;;7.33;2.60;;;;;;;1.06;100.00;99189.63;5024669;28;20049;-78
2022/04/09 02:29:10;;;;;;;14.38;3.22;;;;;;;0.93;100.00;99187.25;5041166;28;20037;-81
2022/04/09 02:31:36;;;;;;;17.00;3.80;;;;;;;0.98;100.00;99200.84;5025988;28;20031;-80
2022/04/09 02:34:02;;;;;;;16.73;2.83;;;;;;;0.97;100.00;99201.78;5042945;28;20032;-81
2022/04/09 02:36:29;;;;;;;11.48;3.92;;;;;;;1.04;100.00;99205.50;5026291;28;20025;-81
2022/04/09 02:38:55;;;;;;;9.80;3.08;;;;;;;1.01;100.00;99204.97;5037632;28;20104;-81
2022/04/09 02:41:21;;;;;;;14.52;2.72;;;;;;;0.98;100.00;99206.09;5029335;28;20048;-81
2022/04/09 02:43:46;;;;;;;11.68;2.80;;;;;;;1.03;100.00;99209.13;5045548;28;20036;-81
2022/04/09 02:46:12;;;;;;;23.98;4.63;;;;;;;1.03;100.00;99208.28;5028975;28;20021;-80
2022/04/09 02:48:41;;;;;;;24.20;3.63;;;;;;;1.03;100.00;99208.28;5046255;28;20037;-81
2022/04/09 02:51:07;;;;;;;23.80;3.22;;;;;;;1.11;100.00;99208.41;5027441;28;20426;-80
2022/04/09 02:53:33;;;;;;;;;;;;;;;1.40;100.00;99211.00;5032352;28;20041;-80
2022/04/09 02:56:00;;;;;;;10.93;3.13;;;;;;;1.33;100.00;99198.56;5029365;28;19939;-82
2022/04/09 02:58:25;;;;;;;12.77;2.92;;;;;;;1.17;100.00;99194.72;5026211;28;20021;-80
2022/04/09 03:00:51;;;;;;;;;;;;;;;1.20;100.00;99202.31;5045781;28;20052;-80
2022/04/09 03:03:23;;;;;;;23.40;2.90;;;;;;;1.35;100.00;99191.38;5045218;28;19909;-82
2022/04/09 03:05:50;;;;;;;11.75;4.18;;;;;;;1.36;100.00;99182.50;5066625;23;20495;-88
2022/04/09 03:08:16;;;;;;;17.23;2.63;;;;;;;1.37;100.00;99178.91;5015573;28;20033;-86
2022/04/09 03:10:41;;;;;;;20.45;4.18;;;;;;;1.40;100.00;99182.06;5017591;28;20066;-86
2022/04/09 03:13:07;;;;;;;19.52;3.10;;;;;;;1.38;100.00;99180.56;5023633;28;20040;-86
2022/04/09 03:15:32;;;;;;;10.70;3.35;;;;;;;1.30;100.00;99177.81;5008072;28;20410;-87
2022/04/09 03:17:59;;;;;;;9.90;2.50;;;;;;;1.31;100.00;99184.72;5016917;28;20040;-86
2022/04/09 03:20:25;;;;;;;19.25;3.40;;;;;;;1.38;100.00;99197.19;5006563;28;20027;-85
2022/04/09 03:22:51;;;;;;;8.75;2.75;;;;;;;1.44;100.00;99196.59;5014408;28;20105;-86
2022/04/09 03:25:30;;;;;;;18.67;3.85;;;;;;;1.43;100.00;99196.75;5000313;28;20863;-87
2022/04/09 03:27:56;;;;;;;15.95;2.63;;;;;;;1.39;100.00;99205.91;5022645;28;20042;-86
2022/04/09 03:30:21;;;;;;;14.00;2.85;;;;;;;1.32;100.00;99213.53;4999379;28;20036;-86
2022/04/09 03:32:48;;;;;;;13.00;3.55;;;;;;;1.32;100.00;99212.69;4999065;28;20555;-86
2022/04/09 03:35:18;;;;;;;23.20;3.38;;;;;;;1.29;100.00;99213.81;5000265;28;20025;-86
2022/04/09 03:37:46;;;;;;;14.80;2.55;;;;;;;1.35;100.00;99217.66;5015429;28;20030;-86
2022/04/09 03:40:16;;;;;;;12.60;3.20;;;;;;;1.43;100.00;99223.88;4991238;28;20029;-86
2022/04/09 03:42:42;;;;;;;;;;;;;;;1.37;100.00;99221.81;5003712;28;20069;-86
2022/04/09 03:45:07;;;;;;;11.88;2.35;;;;;;;1.24;100.00;99216.84;5015422;28;19916;-86
2022/04/09 03:47:34;;;;;;;15.38;3.63;;;;;;;1.23;100.00;99228.31;5023168;28;20118;-87
2022/04/09 03:50:03;;;;;;;7.10;2.55;;;;;;;1.29;100.00;99236.63;5031273;28;20033;-86
2022/04/09 03:52:28;;;;;;;21.52;4.03;;;;;;;1.17;100.00;99226.28;5022845;28;20029;-86
2022/04/09 03:54:54;;;;;;;14.95;3.15;;;;;;;1.18;100.00;99232.34;5006815;28;20029;-86
2022/04/09 03:57:19;;;;;;;33.30;4.40;;;;;;;1.24;100.00;99242.31;5014991;28;20029;-86
2022/04/09 03:59:51;;;;;;;19.63;3.65;;;;;;;1.28;100.00;99248.94;4999205;28;20021;-86
2022/04/09 04:02:17;;;;;;;15.48;2.75;;;;;;;1.31;100.00;99242.56;4993741;28;20099;-86
2022/04/09 04:04:43;;;;;;;14.80;2.85;;;;;;;1.32;100.00;99254.78;4990488;28;20532;-86
2022/04/09 04:07:09;;;;;;;22.17;3.63;;;;;;;1.24;100.00;99256.31;5014269;28;20041;-86
2022/04/09 04:09:36;;;;;;;15.55;3.63;;;;;;;1.27;100.00;99257.81;4998960;28;20057;-86
2022/04/09 04:12:02;;;;;;;11.82;2.55;;;;;;;1.30;100.00;99259.34;5012404;28;20072;-85
2022/04/09 04:14:29;;;;;;;15.93;2.85;;;;;;;1.34;100.00;99258.09;5014599;28;20025;-86
2022/04/09 04:16:55;;;;;;;20.05;3.35;;;;;;;1.34;100.00;99258.09;5006864;28;20043;-85
2022/04/09 04:19:21;;;;;;;8.63;2.70;;;;;;;1.35;100.00;99259.75;4998322;28;20029;-86
2022/04/09 04:21:48;;;;;;;15.30;2.83;;;;;;;1.42;100.00;99255.56;5030424;28;20405;-88
2022/04/09 04:24:14;;;;;;;19.65;3.50;;;;;;;1.38;100.00;99268.19;4998189;28;20029;-87
2022/04/09 04:26:39;;;;;;;6.17;3.00;;;;;;;1.34;100.00;99273.88;5014073;28;20041;-86
2022/04/09 04:29:14;;;;;;;26.55;5.95;;;;;;;1.39;100.00;99264.59;4999201;28;20529;-86
2022/04/09 04:31:39;;;;;;;13.77;2.47;;;;;;;1.40;100.00;99282.00;5005421;28;20029;-85
2022/04/09 04:34:06;;;;;;;18.88;4.65;;;;;;;1.44;100.00;99285.19;5005185;28;20269;-86
2022/04/09 04:36:36;;;;;;;13.95;3.35;;;;;;;1.47;100.00;99280.50;4998354;28;20033;-86
2022/04/09 04:39:02;;;;;;;13.73;3.10;;;;;;;1.59;100.00;99283.81;4997620;28;20029;-86
2022/04/09 04:41:28;;;;;;;15.45;4.00;;;;;;;1.59;100.00;99298.75;5014527;28;20029;-86
2022/04/09 04:43:54;;;;;;;18.23;2.95;;;;;;;1.73;100.00;99294.84;5007932;28;20041;-86
2022/04/09 04:46:24;;;;;;;18.73;3.58;;;;;;;1.78;100.00;99287.34;5004039;28;20044;-86
2022/04/09 04:48:50;;;;;;;14.10;3.30;;;;;;;1.83;100.00;99285.16;5005651;28;20080;-86
2022/04/09 04:51:19;;;;;;;11.70;2.90;;;;;;;1.89;100.00;99285.38;4997485;28;20272;-86
2022/04/09 04:53:44;;;;;;;11.07;2.55;;;;;;;2.04;100.00;99290.22;5001483;28;20044;-87
2022/04/09 04:56:10;;;;;;;16.40;2.50;;;;;;;1.99;100.00;99281.91;5009035;28;20485;-85
2022/04/09 04:58:44;;;;;;;11.18;3.42;;;;;;;1.99;100.00;99303.81;5007323;28;20052;-86
2022/04/09 05:01:10;;;;;;;14.32;4.13;;;;;;;2.08;100.00;99289.78;4997280;28;20057;-86
2022/04/09 05:03:40;;;;;;;18.70;4.00;;;;;;;2.29;100.00;99304.53;5006255;28;20051;-86
2022/04/09 05:06:20;;;;;;;12.10;3.38;;;;;;;2.46;100.00;99298.50;5006934;28;20029;-86
2022/04/09 05:08:45;;;;;;;8.75;2.65;;;;;;;2.39;100.00;99307.97;4997232;28;20045;-85
2022/04/09 05:11:15;;;;;;;9.23;2.50;;;;;;;2.37;100.00;99332.81;5006067;28;20040;-86
2022/04/09 05:13:41;;;;;;;7.13;1.83;;;;;;;2.38;100.00;99335.28;5001110;28;20037;-86
2022/04/09 05:16:09;;;;;;;9.05;1.52;;;;;;;2.17;100.00;99334.66;5022013;28;20045;-86
2022/04/09 05:18:40;;;;;;;7.25;1.88;;;;;;;2.05;100.00;99347.97;5006649;28;20025;-86
2022/04/09 05:21:05;;;;;;;5.43;1.40;;;;;;;1.92;100.00;99363.25;5004746;28;20037;-86
2022/04/09 05:23:31;;;;;;;6.53;1.20;;;;;;;1.94;100.00;99374.47;5005356;28;20791;-86
2022/04/09 05:25:56;;;;;;;4.82;1.45;;;;;;;1.87;100.00;99376.00;5013762;28;20556;-86
2022/04/09 05:28:22;;;;;;;6.77;1.20;;;;;;;1.79;100.00;99379.34;5015723;28;20025;-86
2022/04/09 05:30:52;;;;;;;7.20;1.30;;;;;;;1.89;100.00;99389.84;4993903;28;20033;-86
2022/04/09 05:33:18;;;;;;;4.07;1.30;;;;;;;1.83;100.00;99395.69;5000188;28;20033;-87
2022/04/09 05:35:49;;;;;;;10.07;2.28;;;;;;;1.74;100.00;99413.13;5014895;28;20067;-86
2022/04/09 05:38:16;;;;;;;5.05;1.90;;;;;;;1.79;100.00;99418.81;4997416;28;20516;-86
2022/04/09 05:40:42;;;;;;;7.03;2.05;;;;;;;1.82;100.00;99436.94;4996049;28;20021;-86
2022/04/09 05:43:12;;;;;;;3.95;1.35;;;;;;;1.87;100.00;99436.53;5005915;28;20040;-86
2022/04/09 05:45:39;;;;;;;4.47;1.35;;;;;;;2.02;100.00;99445.69;4996380;28;20037;-86
2022/04/09 05:48:05;;;;;;;6.28;1.40;;;;;;;2.07;100.00;99446.09;4997745;28;20032;-86
2022/04/09 05:50:39;;;;;;;9.60;3.08;;;;;;;2.30;100.00;99451.06;5015834;28;20052;-86
2022/04/09 05:53:05;;;;;;;7.25;1.17;;;;;;;2.67;100.00;99476.63;5014732;28;20120;-87
2022/04/09 05:55:30;;;;;;;3.35;1.08;;;;;;;3.33;100.00;99473.88;4996834;28;20025;-86
2022/04/09 05:57:55;;;;;;;6.10;1.17;;;;;;;2.80;100.00;99442.06;5013043;28;20034;-86
2022/04/09 06:00:22;;;;;;;1.83;0.82;;;;;;;2.56;100.00;99439.91;5002071;28;20577;-86
2022/04/09 06:03:06;;;;;;;5.57;1.73;;;;;;;2.70;100.00;99447.34;4999361;28;20099;-86
2022/04/09 06:05:35;;;;;;;2.58;0.88;;;;;;;3.92;100.00;99458.47;5006401;28;20127;-87
2022/04/09 06:08:05;;;;;;;4.43;0.82;;;;;;;4.85;100.00;99431.56;4997459;28;20107;-86
2022/04/09 06:10:32;;;;;;;3.22;1.42;;;;;;;5.51;100.00;99395.56;5005201;28;20032;-86
2022/04/09 06:12:58;;;;;;;2.20;0.63;;;;;;;6.00;100.00;99363.84;5004276;28;20121;-87
2022/04/09 06:15:26;;;;;;;7.13;1.10;;;;;;;5.41;100.00;99262.56;5017916;28;20075;-86
2022/04/09 06:17:56;;;;;;;5.18;0.90;;;;;;;6.03;100.00;99288.50;5005034;28;20079;-86
2022/04/09 06:20:22;;;;;;;5.15;2.13;;;;;;;6.52;100.00;99261.84;4996516;28;20116;-87
2022/04/09 06:22:48;;;;;;;3.15;1.92;;;;;;;5.85;100.00;99231.22;4996500;28;20096;-86
2022/04/09 06:25:17;;;;;;;5.47;1.00;;;;;;;6.10;100.00;99252.38;4989244;28;20033;-88
2022/04/09 06:27:43;;;;;;;1.70;1.00;;;;;;;6.49;100.00;99278.09;5004974;28;20028;-87
2022/04/09 06:30:11;;;;;;;2.60;0.80;;;;;;;7.37;96.93;99250.34;5012274;28;20476;-86
2022/04/09 06:32:38;;;;;;;4.80;2.35;;;;;;;7.21;92.63;99176.16;5003893;28;20018;-87
2022/04/09 06:35:05;;;;;;;;;;;;;;;7.11;90.53;99136.59;5005008;28;20080;-87
2022/04/09 06:37:31;;;;;;;4.38;1.02;;;;;;;6.87;91.46;99164.16;5004428;28;20419;-87
2022/04/09 06:39:56;;;;;;;5.07;1.23;;;;;;;6.97;92.43;99210.66;5012504;28;20034;-86
2022/04/09 06:42:25;;;;;;;4.30;1.65;;;;;;;7.36;90.42;99199.09;5029261;28;20041;-87
2022/04/09 06:45:33;;;;;;;8.60;1.40;;;;;;;7.63;88.43;99185.41;4989369;28;20134;-86
2022/04/09 06:48:17;;;;;;;5.75;1.85;;;;;;;6.70;89.97;99158.97;5014452;28;20076;-86
2022/04/09 06:50:59;;;;;;;11.13;1.52;;;;;;;5.71;96.06;99234.53;5029605;28;20037;-88
2022/04/09 06:53:25;;;;;;;10.82;1.75;;;;;;;5.60;98.91;99288.69;5004091;28;20033;-87
2022/04/09 06:55:50;;;;;;;6.00;1.47;;;;;;;5.62;100.00;99357.34;5005515;28;20025;-87
2022/04/09 06:58:15;;;;;;;6.00;1.20;;;;;;;5.63;100.00;99361.66;4999806;28;20183;-86
2022/04/09 07:00:41;;;;;;;10.87;1.53;;;;;;;5.33;100.00;99376.34;5001435;28;20040;-86
2022/04/09 07:03:07;;;;;;;13.38;2.90;;;;;;;4.84;100.00;99369.06;5015225;28;20033;-86
2022/04/09 07:05:32;;;;;;;8.17;1.97;;;;;;;4.44;100.00;99410.16;5009033;28;20034;-86
2022/04/09 07:07:57;;;;;;;6.80;1.50;;;;;;;4.57;100.00;99441.50;5016019;28;20037;-87
2022/04/09 07:10:23;;;;;;;11.43;1.80;;;;;;;4.58;100.00;99472.22;5007277;28;20060;-86
2022/04/09 07:12:48;;;;;;;8.03;2.10;;;;;;;4.53;100.00;99471.84;5008146;28;20401;-88
2022/04/09 07:15:13;;;;;;;3.80;1.10;;;;;;;4.98;100.00;99503.34;5016538;28;20033;-86
2022/04/09 07:17:41;;;;;;;9.07;2.73;;;;;;;5.37;100.00;99492.31;5007308;28;20034;-86
2022/04/09 07:20:08;;;;;;;12.98;1.92;;;;;;;5.18;100.00;99481.97;5033231;28;20031;-86
2022/04/09 07:22:35;;;;;;;13.68;2.45;;;;;;;4.89;100.00;99479.66;5023528;28;20029;-87
2022/04/09 07:25:00;;;;;;;7.65;1.67;;;;;;;5.02;100.00;99499.41;4999077;28;20029;-86
2022/04/09 07:27:43;;;;;;;14.90;3.20;;;;;;;5.19;100.00;99526.78;4998880;28;20038;-85
2022/04/09 07:30:20;;;;;;;4.00;1.58;;;;;;;5.32;100.00;99528.19;5023381;28;20038;-85
2022/04/09 07:32:47;;;;;;;7.82;1.30;;;;;;;5.39;100.00;99539.81;5006730;28;20048;-86
2022/04/09 07:35:14;;;;;;;15.27;1.58;;;;;;;5.79;100.00;99562.13;5015241;28;20104;-86
2022/04/09 07:37:44;;;;;;;5.25;1.65;;;;;;;6.22;100.00;99566.41;5024291;28;20048;-87
2022/04/09 07:40:11;;;;;;;7.43;1.63;;;;;;;5.58;100.00;99526.31;5011956;28;20037;-88
2022/04/09 07:42:38;;;;;;;4.57;1.63;;;;;;;5.37;100.00;99526.72;5014710;28;20025;-87
2022/04/09 07:45:04;;;;;;;8.73;1.85;;;;;;;5.32;100.00;99555.47;5023588;28;20041;-85
2022/04/09 07:47:30;;;;;;;3.58;1.60;;;;;;;5.47;100.00;99575.06;5027301;28;20076;-85
2022/04/09 07:49:56;;;;;;;4.93;1.30;;;;;;;4.89;100.00;99522.81;5010190;28;20049;-85
2022/04/09 07:52:21;;;;;;;5.07;1.45;;;;;;;4.82;100.00;99527.91;5004040;28;20025;-85
2022/04/09 07:54:47;;;;;;;4.60;1.13;;;;;;;4.47;100.00;99507.63;5017095;28;20045;-87
2022/04/09 07:57:12;;;;;;;6.30;0.87;;;;;;;4.40;100.00;99506.59;4999332;28;20029;-88
2022/04/09 07:59:37;;;;;;;1.75;0.68;;;;;;;4.09;100.00;99535.22;5015207;28;20048;-86
2022/04/09 08:02:03;;;;;;;1.23;0.60;;;;;;;4.01;100.00;99538.63;5016386;28;20029;-86
2022/04/09 08:04:28;;;;;;;2.85;0.85;;;;;;;3.95;100.00;99560.34;5016501;28;20036;-86
2022/04/09 08:06:54;;;;;;;5.67;1.33;;;;;;;4.03;100.00;99573.63;4998778;28;20064;-86
2022/04/09 08:09:19;;;;;;;1.07;0.70;;;;;;;3.88;100.00;99568.00;5005639;28;20405;-86
2022/04/09 08:11:45;;;;;;;1.97;0.63;;;;;;;3.90;100.00;99567.88;5014373;28;20379;-87
2022/04/09 08:14:11;;;;;;;2.42;0.70;;;;;;;4.98;100.00;99588.00;5023403;28;20034;-86
2022/04/09 08:16:38;;;;;;;3.50;0.90;;;;;;;5.52;100.00;99545.47;5006664;28;20044;-87
2022/04/09 08:19:03;;;;;;;1.85;0.50;;;;;;;5.68;100.00;99513.75;5016113;28;20369;-86
2022/04/09 08:21:29;;;;;;;4.03;1.00;;;;;;;6.10;100.00;99490.84;5024880;28;20495;-87
2022/04/09 08:23:54;;;;;;;5.60;0.98;;;;;;;6.39;100.00;99444.47;5017082;28;20072;-86
2022/04/09 08:26:20;;;;;;;6.80;1.38;;;;;;;6.76;100.00;99447.38;5008136;28;20393;-86
2022/04/09 08:28:45;;;;;;;9.40;1.23;;;;;;;6.73;98.70;99397.34;5007103;28;20063;-86
2022/04/09 08:31:11;;;;;;;5.00;1.10;;;;;;;6.82;97.91;99384.88;5009635;28;20264;-86
2022/04/09 08:33:36;;;;;;;6.73;1.27;;;;;;;7.49;95.57;99415.41;4997546;28;20037;-87
2022/04/09 08:36:02;;;;;;;5.93;1.30;;;;;;;8.45;91.50;99403.38;4997684;28;20511;-87
2022/04/09 08:38:28;;;;;;;;;;;;;;;8.60;86.09;99311.13;4997967;28;20117;-87
2022/04/09 08:40:55;;;;;;;;;;;;;;;8.50;84.87;99277.81;5006095;28;20540;-87
2022/04/09 08:43:20;;;;;;;3.88;1.45;;;;;;;8.91;83.02;99306.59;4997852;28;19913;-86
2022/04/09 08:45:46;;;;;;;9.85;1.25;;;;;;;9.00;82.03;99279.66;5013518;28;20040;-86
2022/04/09 08:48:13;;;;;;;7.53;1.45;;;;;;;8.81;81.91;99288.25;5005766;28;20037;-87
2022/04/09 08:50:41;;;;;;;4.97;1.88;;;;;;;7.46;84.10;99241.31;5014079;28;20418;-88
2022/04/09 08:53:06;;;;;;;3.22;1.45;;;;;;;6.75;84.67;99216.81;5014553;28;20029;-87
2022/04/09 08:55:36;;;;;;;6.37;1.40;;;;;;;6.80;89.79;99356.88;5004208;28;20848;-86
2022/04/09 08:58:04;;;;;;;8.65;1.25;;;;;;;6.65;90.89;99373.50;5006499;28;20481;-87
2022/04/09 09:00:30;;;;;;;5.82;1.23;;;;;;;6.51;89.93;99353.00;5008131;28;20105;-87
2022/04/09 09:02:59;;;;;;;4.60;0.77;;;;;;;6.46;88.90;99344.69;5004782;28;20045;-87
2022/04/09 09:05:30;;;;;;;3.92;0.80;;;;;;;6.26;90.25;99370.78;5005385;28;20028;-87
2022/04/09 09:07:56;;;;;;;3.30;0.90;;;;;;;6.29;91.02;99405.72;5021802;28;20050;-87
2022/04/09 09:10:21;;;;;;;4.70;0.60;;;;;;;6.36;90.38;99397.09;4997896;28;20017;-87
2022/04/09 09:13:05;;;;;;;4.70;0.70;;;;;;;6.91;90.10;99444.88;4997050;28;20049;-86
2022/04/09 09:15:52;;;;;;;3.80;0.77;;;;;;;7.30;88.71;99446.69;5018655;28;20375;-87
2022/04/09 09:18:28;;;;;;;4.60;1.20;;;;;;;7.65;87.79;99422.44;5025616;28;20666;-87
2022/04/09 09:20:53;;;;;;;;;;;;;;;7.38;86.44;99368.84;5013432;28;20033;-87
2022/04/09 09:23:21;;;;;;;;;;;;;;;7.33;86.07;99387.97;5018532;28;19916;-86
2022/04/09 09:25:49;;;;;;;4.53;1.33;;;;;;;7.68;84.45;99374.28;5005245;28;20048;-87
2022/04/09 09:28:21;;;;;;;5.30;0.98;;;;;;;8.54;83.16;99430.75;5034586;28;20032;-87
2022/04/09 09:30:50;;;;;;;4.07;1.17;;;;;;;9.50;80.46;99431.59;4996491;28;20037;-87
2022/04/09 09:33:16;;;;;;;6.50;1.40;;;;;;;10.64;75.14;99369.44;5020829;28;20732;-87
2022/04/09 09:35:54;;;;;;;9.43;2.15;;;;;;;10.87;70.68;99249.84;5037900;28;20036;-87
2022/04/09 09:38:32;;;;;;;4.70;1.63;;;;;;;11.07;68.15;99185.78;4996484;28;20033;-87
2022/04/09 09:40:58;;;;;;;7.68;0.90;;;;;;;10.93;65.82;99082.66;5003589;28;20037;-88
2022/04/09 09:43:26;;;;;;;3.28;1.45;;;;;;;10.70;66.11;99099.06;4995911;28;20021;-87
2022/04/09 09:45:53;;;;;;;9.27;1.50;;;;;;;10.95;67.31;99214.94;5020267;28;20055;-88
2022/04/09 09:48:26;;;;;;;3.80;1.35;;;;;;;11.24;65.27;99202.25;4995574;28;20025;-87
2022/04/09 09:50:53;;;;;;;4.78;1.08;;;;;;;11.35;65.13;99179.44;5025124;28;20037;-87
2022/04/09 09:53:33;;;;;;;3.33;0.80;;;;;;;12.16;62.19;99152.38;5003600;28;20021;-87
2022/04/09 09:55:59;;;;;;;7.47;2.00;;;;;;;11.66;62.63;99130.69;4995816;28;20037;-87
2022/04/09 09:58:29;;;;;;;8.25;1.08;;;;;;;11.75;63.59;99196.28;5004232;28;20017;-87
2022/04/09 10:00:59;;;;;;;3.47;0.85;;;;;;;11.88;62.15;99154.53;5021972;28;20040;-88
2022/04/09 10:03:25;;;;;;;6.03;1.20;;;;;;;12.32;60.63;99118.16;5012610;28;20025;-87
2022/04/09 10:05:51;;;;;;;5.13;1.30;;;;;;;13.16;59.56;99175.94;5007103;28;20392;-87
2022/04/09 10:08:21;;;;;;;3.35;1.15;;;;;;;12.46;59.88;99104.47;5003535;28;20164;-87
2022/04/09 10:10:50;;;;;;;4.13;1.40;;;;;;;12.36;60.22;99108.66;5006507;28;20047;-87
2022/04/09 10:13:21;;;;;;;7.70;2.58;;;;;;;11.46;60.52;98965.03;5015400;28;20025;-88
2022/04/09 10:15:50;;;;;;;8.02;1.55;;;;;;;9.33;65.35;98942.81;4995547;28;20029;-87
2022/04/09 10:18:23;;;;;;;7.13;1.42;;;;;;;7.77;74.53;99152.69;5003769;28;20037;-87
2022/04/09 10:21:00;;;;;;;6.07;1.02;;;;;;;8.20;80.41;99435.50;5028431;28;20128;-87
2022/04/09 10:23:32;;;;;;;4.45;1.10;;;;;;;9.27;79.38;99507.16;5030833;28;20137;-87
2022/04/09 10:25:59;;;;;;;6.45;1.80;;;;;;;9.91;76.12;99484.34;5021845;28;20032;-87
2022/04/09 10:28:30;;;;;;;5.47;1.20;;;;;;;9.26;74.00;99316.41;5003590;28;20024;-87
2022/04/09 10:30:55;;;;;;;6.15;1.75;;;;;;;8.61;76.02;99338.56;4995299;28;20048;-88
2022/04/09 10:33:22;;;;;;;7.73;1.33;;;;;;;8.51;77.50;99400.00;5015176;28;20025;-87
2022/04/09 10:35:48;;;;;;;6.03;1.45;;;;;;;7.38;79.28;99351.09;4999347;28;20930;-87
2022/04/09 10:38:16;;;;;;;7.32;1.83;;;;;;;7.19;83.96;99492.22;5023772;28;20026;-87
2022/04/09 10:40:50;;;;;;;8.50;1.50;;;;;;;7.27;85.37;99547.13;5039401;28;20042;-87
2022/04/09 10:43:22;;;;;;;5.35;0.95;;;;;;;7.16;85.97;99551.81;4999219;28;20052;-88
2022/04/09 10:46:04;;;;;;;4.22;1.77;;;;;;;8.04;84.59;99555.25;5023304;28;20041;-86
2022/04/09 10:48:42;;;;;;;5.00;1.00;;;;;;;6.82;89.67;99580.38;5020045;28;20036;-87
2022/04/09 10:51:11;;;;;;;3.60;0.63;;;;;;;5.91;93.52;99593.44;5025721;28;20040;-86
2022/04/09 10:53:38;;;;;;;4.50;0.77;;;;;;;5.87;99.22;99686.66;5008297;28;20030;-87
2022/04/09 10:56:12;;;;;;;1.52;0.50;;;;;;;5.69;100.00;99676.13;5011702;28;20034;-87
2022/04/09 10:59:08;;;;;;;4.22;0.68;;;;;;;5.63;100.00;99687.34;5035185;28;20025;-87
2022/04/09 11:01:50;;;;;;;3.78;0.85;;;;;;;5.41;100.00;99694.81;5001836;28;20037;-86
2022/04/09 11:04:36;;;;;;;5.47;0.80;;;;;;;5.64;100.00;99726.91;5015862;28;20489;-87
2022/04/09 11:07:18;;;;;;;1.88;0.80;;;;;;;5.69;100.00;99734.41;5009051;28;20136;-87
2022/04/09 11:09:48;;;;;;;3.28;0.73;;;;;;;6.02;100.00;99754.00;5033911;28;20045;-87
2022/04/09 11:12:37;;;;;;;5.72;0.98;;;;;;;6.36;100.00;99747.84;5008151;28;20029;-87
2022/04/09 11:15:05;;;;;;;11.68;1.73;;;;;;;7.10;98.44;99722.34;5001009;28;20045;-87
2022/04/09 11:17:35;;;;;;;7.78;1.95;;;;;;;7.12;94.92;99651.34;5010223;28;20013;-87
2022/04/09 11:20:14;;;;;;;8.20;1.20;;;;;;;6.75;92.84;99601.41;5030369;28;20040;-86
2022/04/09 11:23:09;;;;;;;5.43;1.73;;;;;;;6.64;96.02;99678.66;5007793;28;20461;-86
2022/04/09 11:25:35;;;;;;;;;;;;;;;6.49;96.17;99691.72;5000209;28;20048;-86
2022/04/09 11:28:06;;;;;;;12.20;1.63;;;;;;;5.40;100.00;99694.97;5008760;28;19913;-87
2022/04/09 11:30:31;;;;;;;4.68;1.00;;;;;;;4.82;100.00;99783.56;4998978;28;20072;-87
2022/04/09 11:32:56;;;;;;;4.83;0.93;;;;;;;4.34;100.00;99821.69;5007050;28;20060;-87
2022/04/09 11:35:24;;;;;;;6.32;1.98;;;;;;;4.56;100.00;99849.53;5023001;28;20061;-87
2022/04/09 11:37:51;;;;;;;8.23;1.15;;;;;;;4.38;100.00;99857.41;5007498;28;20100;-87